sensor_id;sensor_type;location;lat;lon;timestamp;P1;durP1;ratioP1;P2;durP2;ratioP2
20611;SDS011;10465;42.686;23.364;2023-07-29T17:37:17;12.65;;;2.30;;
20611;SDS011;10465;42.686;23.364;2023-07-29T17:39:44;4.75;;;2.10;;
20611;SDS011;10465;42.686;23.364;2023-07-29T17:42:09;3.78;;;1.98;;
20611;SDS011;10465;42.686;23.364;2023-07-29T17:44:35;4.55;;;2.25;;
20611;SDS011;10465;42.686;23.364;2023-07-29T17:47:00;5.75;;;2.05;;
20611;SDS011;10465;42.686;23.364;2023-07-29T17:49:25;10.48;;;2.47;;
20611;SDS011;10465;42.686;23.364;2023-07-29T17:51:51;5.78;;;2.63;;
20611;SDS011;10465;42.686;23.364;2023-07-29T17:54:17;10.32;;;2.00;;
20611;SDS011;10465;42.686;23.364;2023-07-29T17:56:42;4.82;;;2.20;;
20611;SDS011;10465;42.686;23.364;2023-07-29T17:59:08;7.03;;;2.20;;
20611;SDS011;10465;42.686;23.364;2023-07-29T18:01:33;5.15;;;2.50;;
20611;SDS011;10465;42.686;23.364;2023-07-29T18:03:59;7.70;;;2.30;;
20611;SDS011;10465;42.686;23.364;2023-07-29T18:06:25;15.68;;;3.08;;
20611;SDS011;10465;42.686;23.364;2023-07-29T18:08:50;9.80;;;2.85;;
20611;SDS011;10465;42.686;23.364;2023-07-29T18:11:15;12.55;;;2.88;;
20611;SDS011;10465;42.686;23.364;2023-07-29T18:13:42;5.68;;;2.63;;
20611;SDS011;10465;42.686;23.364;2023-07-29T18:16:07;8.25;;;2.35;;
20611;SDS011;10465;42.686;23.364;2023-07-29T18:18:33;11.15;;;2.70;;
20611;SDS011;10465;42.686;23.364;2023-07-29T18:20:58;3.80;;;2.40;;
20611;SDS011;10465;42.686;23.364;2023-07-29T18:23:26;5.47;;;2.40;;
20611;SDS011;10465;42.686;23.364;2023-07-29T18:25:51;4.95;;;2.35;;
20611;SDS011;10465;42.686;23.364;2023-07-29T18:28:21;5.40;;;2.78;;
20611;SDS011;10465;42.686;23.364;2023-07-29T18:30:49;5.05;;;2.75;;
20611;SDS011;10465;42.686;23.364;2023-07-29T18:33:14;5.43;;;2.60;;
20611;SDS011;10465;42.686;23.364;2023-07-29T18:35:40;7.80;;;3.00;;
20611;SDS011;10465;42.686;23.364;2023-07-29T18:38:07;11.75;;;3.53;;
20611;SDS011;10465;42.686;23.364;2023-07-29T18:40:33;9.85;;;3.20;;
20611;SDS011;10465;42.686;23.364;2023-07-29T18:42:58;11.18;;;3.63;;
20611;SDS011;10465;42.686;23.364;2023-07-29T18:45:25;10.85;;;3.53;;
20611;SDS011;10465;42.686;23.364;2023-07-29T18:47:50;7.13;;;3.63;;
20611;SDS011;10465;42.686;23.364;2023-07-29T18:50:16;8.52;;;3.58;;
20611;SDS011;10465;42.686;23.364;2023-07-29T18:52:42;7.20;;;3.28;;
20611;SDS011;10465;42.686;23.364;2023-07-29T18:55:08;6.90;;;5.05;;
20611;SDS011;10465;42.686;23.364;2023-07-29T18:57:33;14.73;;;4.97;;
20611;SDS011;10465;42.686;23.364;2023-07-29T18:59:59;6.07;;;4.43;;
20611;SDS011;10465;42.686;23.364;2023-07-29T19:02:25;10.93;;;4.32;;
20611;SDS011;10465;42.686;23.364;2023-07-29T19:04:52;10.93;;;4.25;;
20611;SDS011;10465;42.686;23.364;2023-07-29T19:07:17;9.13;;;4.15;;
20611;SDS011;10465;42.686;23.364;2023-07-29T19:09:44;6.20;;;4.38;;
20611;SDS011;10465;42.686;23.364;2023-07-29T19:12:10;7.43;;;4.10;;
20611;SDS011;10465;42.686;23.364;2023-07-29T19:14:38;8.93;;;4.20;;
20611;SDS011;10465;42.686;23.364;2023-07-29T19:17:04;10.15;;;4.90;;
20611;SDS011;10465;42.686;23.364;2023-07-29T19:19:30;11.18;;;5.28;;
20611;SDS011;10465;42.686;23.364;2023-07-29T19:21:56;8.45;;;5.32;;
20611;SDS011;10465;42.686;23.364;2023-07-29T19:24:22;6.05;;;4.75;;
20611;SDS011;10465;42.686;23.364;2023-07-29T19:26:47;8.93;;;5.00;;
20611;SDS011;10465;42.686;23.364;2023-07-29T19:29:15;9.15;;;4.72;;
20611;SDS011;10465;42.686;23.364;2023-07-29T19:31:40;7.93;;;4.90;;
20611;SDS011;10465;42.686;23.364;2023-07-29T19:34:09;8.23;;;5.22;;
20611;SDS011;10465;42.686;23.364;2023-07-29T19:36:36;7.43;;;4.93;;
20611;SDS011;10465;42.686;23.364;2023-07-29T19:39:04;7.15;;;4.38;;
20611;SDS011;10465;42.686;23.364;2023-07-29T19:41:32;7.28;;;4.80;;
20611;SDS011;10465;42.686;23.364;2023-07-29T19:43:59;9.30;;;5.00;;
20611;SDS011;10465;42.686;23.364;2023-07-29T19:46:25;8.02;;;5.15;;
20611;SDS011;10465;42.686;23.364;2023-07-29T19:48:50;12.20;;;5.45;;
20611;SDS011;10465;42.686;23.364;2023-07-29T19:51:23;10.82;;;5.35;;
20611;SDS011;10465;42.686;23.364;2023-07-29T19:53:49;7.88;;;5.03;;
20611;SDS011;10465;42.686;23.364;2023-07-29T19:56:16;12.23;;;5.30;;
20611;SDS011;10465;42.686;23.364;2023-07-29T19:58:44;6.70;;;5.15;;
20611;SDS011;10465;42.686;23.364;2023-07-29T20:01:09;13.10;;;6.00;;
20611;SDS011;10465;42.686;23.364;2023-07-29T20:03:36;7.43;;;4.80;;
20611;SDS011;10465;42.686;23.364;2023-07-29T20:06:02;8.68;;;5.20;;
20611;SDS011;10465;42.686;23.364;2023-07-29T20:08:27;7.00;;;4.88;;
20611;SDS011;10465;42.686;23.364;2023-07-29T20:10:53;8.45;;;4.57;;
20611;SDS011;10465;42.686;23.364;2023-07-29T20:13:18;8.18;;;3.90;;
20611;SDS011;10465;42.686;23.364;2023-07-29T20:15:44;6.88;;;3.90;;
20611;SDS011;10465;42.686;23.364;2023-07-29T20:18:09;5.68;;;3.45;;
20611;SDS011;10465;42.686;23.364;2023-07-29T20:20:35;5.07;;;3.78;;
20611;SDS011;10465;42.686;23.364;2023-07-29T20:23:00;5.00;;;3.00;;
20611;SDS011;10465;42.686;23.364;2023-07-29T20:25:26;3.70;;;3.13;;
20611;SDS011;10465;42.686;23.364;2023-07-29T20:27:51;4.82;;;2.80;;
20611;SDS011;10465;42.686;23.364;2023-07-29T20:30:17;7.30;;;3.45;;
20611;SDS011;10465;42.686;23.364;2023-07-29T20:32:42;4.03;;;2.90;;
20611;SDS011;10465;42.686;23.364;2023-07-29T20:35:08;4.22;;;3.17;;
20611;SDS011;10465;42.686;23.364;2023-07-29T20:37:34;4.10;;;3.03;;
20611;SDS011;10465;42.686;23.364;2023-07-29T20:39:59;7.20;;;3.25;;
20611;SDS011;10465;42.686;23.364;2023-07-29T20:42:26;5.82;;;3.60;;
20611;SDS011;10465;42.686;23.364;2023-07-29T20:44:51;5.28;;;3.70;;
20611;SDS011;10465;42.686;23.364;2023-07-29T20:47:17;5.38;;;3.47;;
20611;SDS011;10465;42.686;23.364;2023-07-29T20:49:43;6.72;;;4.00;;
20611;SDS011;10465;42.686;23.364;2023-07-29T20:52:10;8.00;;;4.25;;
20611;SDS011;10465;42.686;23.364;2023-07-29T20:54:35;6.28;;;3.88;;
20611;SDS011;10465;42.686;23.364;2023-07-29T20:57:00;6.07;;;4.15;;
20611;SDS011;10465;42.686;23.364;2023-07-29T20:59:26;8.45;;;4.10;;
20611;SDS011;10465;42.686;23.364;2023-07-29T21:01:51;8.15;;;3.95;;
20611;SDS011;10465;42.686;23.364;2023-07-29T21:04:17;11.30;;;3.67;;
20611;SDS011;10465;42.686;23.364;2023-07-29T21:06:42;5.88;;;3.85;;
20611;SDS011;10465;42.686;23.364;2023-07-29T21:09:08;4.05;;;2.78;;
20611;SDS011;10465;42.686;23.364;2023-07-29T21:11:34;5.57;;;3.55;;
20611;SDS011;10465;42.686;23.364;2023-07-29T21:13:59;5.45;;;3.38;;
20611;SDS011;10465;42.686;23.364;2023-07-29T21:16:25;3.75;;;3.00;;
20611;SDS011;10465;42.686;23.364;2023-07-29T21:18:50;3.65;;;3.20;;
20611;SDS011;10465;42.686;23.364;2023-07-29T21:21:15;4.72;;;3.50;;
20611;SDS011;10465;42.686;23.364;2023-07-29T21:23:41;5.28;;;3.17;;
20611;SDS011;10465;42.686;23.364;2023-07-29T21:26:06;6.30;;;3.25;;
20611;SDS011;10465;42.686;23.364;2023-07-29T21:28:32;4.82;;;3.20;;
20611;SDS011;10465;42.686;23.364;2023-07-29T21:30:58;5.55;;;3.58;;
20611;SDS011;10465;42.686;23.364;2023-07-29T21:33:26;5.03;;;3.05;;
20611;SDS011;10465;42.686;23.364;2023-07-29T21:35:52;5.20;;;3.30;;
20611;SDS011;10465;42.686;23.364;2023-07-29T21:38:18;4.70;;;3.40;;
20611;SDS011;10465;42.686;23.364;2023-07-29T21:40:47;3.90;;;2.85;;
20611;SDS011;10465;42.686;23.364;2023-07-29T21:43:14;3.00;;;2.70;;
20611;SDS011;10465;42.686;23.364;2023-07-29T21:45:40;4.45;;;3.10;;
20611;SDS011;10465;42.686;23.364;2023-07-29T21:48:05;3.92;;;2.72;;
20611;SDS011;10465;42.686;23.364;2023-07-29T21:50:31;3.78;;;3.10;;
20611;SDS011;10465;42.686;23.364;2023-07-29T21:52:56;6.50;;;2.95;;
20611;SDS011;10465;42.686;23.364;2023-07-29T21:55:22;5.22;;;3.30;;
20611;SDS011;10465;42.686;23.364;2023-07-29T21:57:47;5.63;;;3.15;;
20611;SDS011;10465;42.686;23.364;2023-07-29T22:00:12;4.25;;;3.20;;
20611;SDS011;10465;42.686;23.364;2023-07-29T22:02:38;3.58;;;2.80;;
20611;SDS011;10465;42.686;23.364;2023-07-29T22:05:03;3.67;;;3.20;;
20611;SDS011;10465;42.686;23.364;2023-07-29T22:07:29;4.45;;;2.60;;
20611;SDS011;10465;42.686;23.364;2023-07-29T22:09:55;5.10;;;2.70;;
20611;SDS011;10465;42.686;23.364;2023-07-29T22:12:20;4.22;;;2.70;;
20611;SDS011;10465;42.686;23.364;2023-07-29T22:14:45;3.33;;;2.28;;
20611;SDS011;10465;42.686;23.364;2023-07-29T22:17:11;4.65;;;2.45;;
20611;SDS011;10465;42.686;23.364;2023-07-29T22:19:37;3.67;;;2.30;;
20611;SDS011;10465;42.686;23.364;2023-07-29T22:22:03;3.40;;;2.47;;
20611;SDS011;10465;42.686;23.364;2023-07-29T22:24:29;4.05;;;2.38;;
20611;SDS011;10465;42.686;23.364;2023-07-29T22:26:54;4.03;;;2.50;;
20611;SDS011;10465;42.686;23.364;2023-07-29T22:29:20;2.60;;;2.40;;
20611;SDS011;10465;42.686;23.364;2023-07-29T22:31:45;5.20;;;2.17;;
20611;SDS011;10465;42.686;23.364;2023-07-29T22:34:11;2.88;;;2.60;;
20611;SDS011;10465;42.686;23.364;2023-07-29T22:36:37;3.88;;;3.25;;
20611;SDS011;10465;42.686;23.364;2023-07-29T22:39:03;3.15;;;2.60;;
20611;SDS011;10465;42.686;23.364;2023-07-29T22:41:28;4.72;;;2.78;;
20611;SDS011;10465;42.686;23.364;2023-07-29T22:43:54;4.07;;;2.90;;
20611;SDS011;10465;42.686;23.364;2023-07-29T22:46:19;5.40;;;2.85;;
20611;SDS011;10465;42.686;23.364;2023-07-29T22:48:45;5.57;;;3.03;;
20611;SDS011;10465;42.686;23.364;2023-07-29T22:51:10;4.80;;;3.30;;
20611;SDS011;10465;42.686;23.364;2023-07-29T22:53:36;6.15;;;3.13;;
20611;SDS011;10465;42.686;23.364;2023-07-29T22:56:01;7.20;;;3.92;;
20611;SDS011;10465;42.686;23.364;2023-07-29T22:58:26;5.93;;;3.92;;
20611;SDS011;10465;42.686;23.364;2023-07-29T23:00:53;4.45;;;3.72;;
20611;SDS011;10465;42.686;23.364;2023-07-29T23:03:19;9.27;;;4.40;;
20611;SDS011;10465;42.686;23.364;2023-07-29T23:05:45;5.38;;;3.63;;
20611;SDS011;10465;42.686;23.364;2023-07-29T23:08:11;4.13;;;3.67;;
20611;SDS011;10465;42.686;23.364;2023-07-29T23:10:36;5.40;;;3.63;;
20611;SDS011;10465;42.686;23.364;2023-07-29T23:13:02;5.22;;;3.97;;
20611;SDS011;10465;42.686;23.364;2023-07-29T23:15:28;4.32;;;3.92;;
20611;SDS011;10465;42.686;23.364;2023-07-29T23:17:57;8.05;;;4.05;;
20611;SDS011;10465;42.686;23.364;2023-07-29T23:20:25;6.50;;;3.88;;
20611;SDS011;10465;42.686;23.364;2023-07-29T23:22:51;5.47;;;3.72;;
20611;SDS011;10465;42.686;23.364;2023-07-29T23:25:16;6.00;;;4.13;;
20611;SDS011;10465;42.686;23.364;2023-07-29T23:27:42;7.28;;;4.57;;
20611;SDS011;10465;42.686;23.364;2023-07-29T23:30:07;5.28;;;4.50;;
20611;SDS011;10465;42.686;23.364;2023-07-29T23:32:33;8.13;;;4.70;;
20611;SDS011;10465;42.686;23.364;2023-07-29T23:34:58;6.07;;;4.50;;
20611;SDS011;10465;42.686;23.364;2023-07-29T23:37:24;6.30;;;4.40;;
20611;SDS011;10465;42.686;23.364;2023-07-29T23:39:50;7.93;;;4.97;;
20611;SDS011;10465;42.686;23.364;2023-07-29T23:42:15;7.53;;;4.57;;
20611;SDS011;10465;42.686;23.364;2023-07-29T23:44:41;5.97;;;4.50;;
20611;SDS011;10465;42.686;23.364;2023-07-29T23:47:06;7.45;;;4.72;;
20611;SDS011;10465;42.686;23.364;2023-07-29T23:49:32;7.72;;;4.32;;
20611;SDS011;10465;42.686;23.364;2023-07-29T23:51:57;5.40;;;4.18;;
20611;SDS011;10465;42.686;23.364;2023-07-29T23:54:23;6.63;;;4.45;;
20611;SDS011;10465;42.686;23.364;2023-07-29T23:56:48;4.50;;;4.10;;
20611;SDS011;10465;42.686;23.364;2023-07-29T23:59:14;4.50;;;4.10;;
